createdAt,value
2022-09-02T00:01:40.980Z,9.13
2022-09-02T00:04:19.125Z,9.30
2022-09-02T00:06:52.699Z,7.87
2022-09-02T00:09:26.478Z,8.47
2022-09-02T00:11:58.273Z,9.40
2022-09-02T00:14:35.023Z,9.00
2022-09-02T00:17:07.044Z,9.13
2022-09-02T00:19:38.827Z,9.40
2022-09-02T00:22:10.618Z,9.00
2022-09-02T00:24:42.380Z,9.27
2022-09-02T00:27:14.119Z,10.13
2022-09-02T00:29:45.999Z,9.70
2022-09-02T00:32:17.803Z,9.20
2022-09-02T00:34:49.583Z,9.27
2022-09-02T00:37:21.458Z,8.67
2022-09-02T00:39:54.698Z,9.17
2022-09-02T00:42:26.966Z,9.47
2022-09-02T00:44:58.867Z,9.63
2022-09-02T00:47:33.367Z,9.50
2022-09-02T00:50:09.733Z,9.40
2022-09-02T00:52:46.296Z,8.30
2022-09-02T00:55:25.635Z,10.30
2022-09-02T00:58:01.680Z,7.90
2022-09-02T01:00:42.482Z,8.50
2022-09-02T01:03:23.553Z,10.40
2022-09-02T01:05:57.170Z,8.90
2022-09-02T01:08:34.162Z,8.07
2022-09-02T01:11:07.039Z,8.10
2022-09-02T01:13:42.387Z,7.97
2022-09-02T01:16:39.397Z,8.63
2022-09-02T01:19:25.444Z,9.23
2022-09-02T01:21:57.918Z,8.70
2022-09-02T01:24:32.625Z,8.77
2022-09-02T01:27:04.552Z,8.50
2022-09-02T01:29:36.382Z,9.50
2022-09-02T01:32:08.457Z,8.60
2022-09-02T01:34:40.293Z,9.13
2022-09-02T01:37:12.130Z,8.80
2022-09-02T01:39:45.823Z,9.37
2022-09-02T01:42:18.131Z,8.13
2022-09-02T01:44:50.463Z,8.70
2022-09-02T01:47:25.376Z,8.60
2022-09-02T01:49:57.174Z,9.70
2022-09-02T01:52:29.395Z,8.60
2022-09-02T01:55:01.256Z,8.77
2022-09-02T01:57:33.411Z,8.97
2022-09-02T02:00:08.983Z,8.57
2022-09-02T02:02:41.112Z,8.30
2022-09-02T02:05:16.009Z,8.57
2022-09-02T02:07:47.876Z,8.00
2022-09-02T02:10:21.519Z,9.37
2022-09-02T02:12:53.297Z,8.40
2022-09-02T02:17:55.978Z,11.27
2022-09-02T02:20:27.861Z,8.47
2022-09-02T02:22:59.781Z,8.80
2022-09-02T02:25:32.280Z,8.80
2022-09-02T02:28:04.628Z,8.50
2022-09-02T02:30:37.407Z,8.47
2022-09-02T02:33:09.303Z,9.27
2022-09-02T02:35:42.129Z,8.53
2022-09-02T02:38:14.426Z,8.70
2022-09-02T02:40:47.670Z,8.90
2022-09-02T02:43:20.639Z,9.20
2022-09-02T02:45:54.271Z,7.33
2022-09-02T02:48:26.123Z,8.80
2022-09-02T02:50:58.028Z,8.80
2022-09-02T02:53:31.258Z,7.93
2022-09-02T02:56:05.466Z,7.80
2022-09-02T02:58:37.300Z,8.90
2022-09-02T03:01:09.608Z,8.03
2022-09-02T03:03:42.671Z,8.80
2022-09-02T03:06:14.770Z,9.50
2022-09-02T03:08:48.913Z,7.97
2022-09-02T03:11:23.830Z,8.13
2022-09-02T03:13:56.438Z,8.40
2022-09-02T03:16:28.340Z,9.40
2022-09-02T03:19:00.878Z,8.20
2022-09-02T03:21:38.794Z,8.47
2022-09-02T03:24:13.032Z,7.33
2022-09-02T03:26:44.888Z,7.40
2022-09-02T03:29:16.667Z,7.87
2022-09-02T03:31:48.503Z,9.00
2022-09-02T03:34:20.243Z,8.03
2022-09-02T03:36:52.098Z,6.97
2022-09-02T03:39:23.870Z,7.90
2022-09-02T03:41:55.619Z,8.10
2022-09-02T03:44:27.331Z,7.63
2022-09-02T03:46:59.048Z,8.10
2022-09-02T03:49:31.087Z,7.23
2022-09-02T03:52:03.038Z,7.53
2022-09-02T03:54:34.787Z,8.30
2022-09-02T03:57:06.558Z,8.20
2022-09-02T03:59:39.121Z,7.50
2022-09-02T04:02:11.068Z,7.33
2022-09-02T04:04:42.940Z,8.07
2022-09-02T04:07:14.659Z,7.43
2022-09-02T04:09:46.890Z,6.97
2022-09-02T04:12:18.799Z,7.10
2022-09-02T04:14:50.602Z,7.80
2022-09-02T04:17:29.316Z,6.90
2022-09-02T04:20:01.032Z,7.40
2022-09-02T04:22:33.078Z,8.37
2022-09-02T04:25:06.607Z,7.07
2022-09-02T04:27:39.364Z,7.47
2022-09-02T04:30:11.776Z,7.60
2022-09-02T04:32:43.523Z,7.30
2022-09-02T04:35:15.429Z,8.07
2022-09-02T04:37:49.006Z,6.90
2022-09-02T04:40:20.790Z,6.53
2022-09-02T04:42:55.313Z,7.10
2022-09-02T04:45:29.874Z,7.23
2022-09-02T04:48:02.101Z,7.67
2022-09-02T04:50:35.446Z,7.07
2022-09-02T04:53:07.916Z,8.80
2022-09-02T04:55:41.951Z,7.63
2022-09-02T04:58:16.235Z,7.53
2022-09-02T05:00:48.040Z,8.30
2022-09-02T05:03:20.177Z,7.30
2022-09-02T05:06:00.422Z,7.90
2022-09-02T05:08:33.015Z,7.40
2022-09-02T05:11:18.464Z,7.03
2022-09-02T05:13:51.591Z,7.53
2022-09-02T05:16:29.575Z,6.97
2022-09-02T05:19:01.675Z,8.00
2022-09-02T05:21:33.515Z,8.27
2022-09-02T05:24:06.506Z,6.73
2022-09-02T05:26:38.613Z,6.93
2022-09-02T05:29:11.859Z,7.47
2022-09-02T05:31:43.693Z,8.00
2022-09-02T05:34:16.649Z,8.23
2022-09-02T05:36:48.493Z,7.53
2022-09-02T05:39:20.390Z,7.40
2022-09-02T05:41:52.132Z,8.03
2022-09-02T05:44:23.971Z,7.97
2022-09-02T05:46:55.748Z,7.87
2022-09-02T05:49:27.611Z,8.57
2022-09-02T05:52:00.851Z,7.70
2022-09-02T05:54:35.410Z,7.33
2022-09-02T05:57:13.145Z,8.40
2022-09-02T05:59:46.008Z,7.67
2022-09-02T06:02:18.827Z,7.63
2022-09-02T06:04:53.429Z,7.97
2022-09-02T06:07:26.398Z,8.90
2022-09-02T06:09:58.221Z,7.77
2022-09-02T06:12:33.144Z,7.70
2022-09-02T06:15:05.350Z,7.83
2022-09-02T06:17:37.151Z,6.97
2022-09-02T06:20:09.219Z,7.20
2022-09-02T06:22:42.602Z,7.33
2022-09-02T06:25:14.432Z,9.17
2022-09-02T06:27:46.246Z,7.83
2022-09-02T06:30:18.143Z,7.33
2022-09-02T06:32:50.600Z,7.50
2022-09-02T06:35:22.855Z,6.43
2022-09-02T06:37:54.700Z,6.50
2022-09-02T06:40:27.082Z,7.63
2022-09-02T06:42:59.223Z,8.00
2022-09-02T06:45:31.604Z,7.13
2022-09-02T06:48:03.475Z,6.63
2022-09-02T06:50:42.234Z,6.50
2022-09-02T06:53:14.864Z,6.50
2022-09-02T06:55:46.989Z,6.83
2022-09-02T06:58:19.382Z,6.20
2022-09-02T07:00:52.124Z,6.43
2022-09-02T07:03:42.625Z,5.97
2022-09-02T07:06:14.539Z,6.10
2022-09-02T07:08:46.679Z,6.07
2022-09-02T07:11:23.814Z,6.20
2022-09-02T07:13:55.654Z,6.40
2022-09-02T07:16:29.495Z,6.37
2022-09-02T07:19:01.414Z,5.80
2022-09-02T07:21:33.179Z,6.05
2022-09-02T07:24:05.044Z,6.10
2022-09-02T07:26:37.245Z,6.00
2022-09-02T07:29:10.294Z,6.13
2022-09-02T07:31:44.927Z,6.37
2022-09-02T07:34:17.918Z,5.33
2022-09-02T07:36:49.803Z,6.33
2022-09-02T07:39:21.686Z,5.75
2022-09-02T07:41:53.466Z,6.10
2022-09-02T07:44:25.286Z,7.07
2022-09-02T07:46:57.173Z,6.77
2022-09-02T07:49:29.051Z,6.53
2022-09-02T07:52:00.801Z,6.20
2022-09-02T07:54:32.580Z,6.20
2022-09-02T07:57:05.542Z,5.50
2022-09-02T07:59:37.346Z,6.30
2022-09-02T08:02:09.963Z,6.43
2022-09-02T08:04:41.935Z,5.60
2022-09-02T08:07:13.857Z,5.93
2022-09-02T08:09:45.628Z,6.17
2022-09-02T08:12:20.189Z,5.90
2022-09-02T08:14:55.836Z,6.43
2022-09-02T08:17:27.709Z,5.90
2022-09-02T08:19:59.463Z,6.30
2022-09-02T08:22:35.712Z,5.70
2022-09-02T08:25:08.241Z,5.27
2022-09-02T08:27:40.591Z,6.23
2022-09-02T08:30:12.712Z,5.30
2022-09-02T08:32:44.447Z,6.23
2022-09-02T08:35:16.709Z,4.90
2022-09-02T08:37:48.700Z,5.20
2022-09-02T08:40:23.390Z,5.30
2022-09-02T08:42:56.714Z,6.27
2022-09-02T08:45:37.598Z,6.20
2022-09-02T08:48:15.211Z,5.10
2022-09-02T08:50:49.754Z,5.50
2022-09-02T08:53:27.178Z,6.00
2022-09-02T08:56:01.237Z,5.70
2022-09-02T08:58:40.627Z,5.33
2022-09-02T09:01:25.469Z,5.57
2022-09-02T09:04:12.609Z,5.23
2022-09-02T09:06:59.111Z,4.90
2022-09-02T09:10:03.262Z,4.97
2022-09-02T09:12:47.370Z,4.50
2022-09-02T09:15:19.044Z,4.50
2022-09-02T09:17:54.744Z,5.27
2022-09-02T09:20:35.378Z,4.50
2022-09-02T09:23:34.867Z,4.70
2022-09-02T09:26:18.916Z,4.00
2022-09-02T09:28:50.967Z,4.37
2022-09-02T09:31:29.779Z,3.90
2022-09-02T09:34:09.012Z,4.00
2022-09-02T09:36:40.663Z,3.60
2022-09-02T09:39:27.390Z,3.22
2022-09-02T09:42:02.875Z,3.15
2022-09-02T09:44:44.926Z,3.42
2022-09-02T09:47:23.196Z,3.03
2022-09-02T09:50:17.134Z,3.47
2022-09-02T09:52:48.978Z,3.60
2022-09-02T09:55:25.307Z,3.38
2022-09-02T09:58:09.195Z,3.58
2022-09-02T10:00:41.344Z,2.75
2022-09-02T10:03:23.230Z,3.20
2022-09-02T10:06:16.607Z,2.90
2022-09-02T10:08:51.309Z,2.95
2022-09-02T10:11:29.269Z,3.38
2022-09-02T10:14:06.992Z,2.88
2022-09-02T10:17:18.985Z,2.58
2022-09-02T10:19:54.210Z,2.88
2022-09-02T10:23:00.654Z,2.67
2022-09-02T10:25:51.302Z,2.53
2022-09-02T10:28:56.929Z,2.38
2022-09-02T10:31:49.678Z,2.40
2022-09-02T10:34:36.230Z,2.60
2022-09-02T10:37:23.415Z,2.25
2022-09-02T10:40:17.178Z,2.78
2022-09-02T10:43:02.619Z,2.83
2022-09-02T10:45:47.858Z,2.20
2022-09-02T10:48:56.919Z,2.40
2022-09-02T10:51:40.938Z,2.38
2022-09-02T10:54:23.687Z,2.20
2022-09-02T10:57:13.066Z,2.40
2022-09-02T11:00:09.531Z,2.45
2022-09-02T11:03:05.723Z,2.40
2022-09-02T11:05:54.019Z,2.38
2022-09-02T11:08:31.948Z,2.00
2022-09-02T11:11:24.334Z,2.20
2022-09-02T11:14:03.251Z,2.50
2022-09-02T11:17:04.079Z,2.30
2022-09-02T11:19:42.509Z,2.45
2022-09-02T11:22:30.047Z,2.60
2022-09-02T11:25:27.789Z,2.50
2022-09-02T11:28:08.398Z,2.30
2022-09-02T11:30:53.438Z,2.90
2022-09-02T11:33:36.594Z,2.77
2022-09-02T11:36:08.524Z,2.80
2022-09-02T11:38:47.640Z,2.80
2022-09-02T11:42:00.609Z,2.83
2022-09-02T11:44:52.342Z,3.20
2022-09-02T11:47:33.683Z,2.87
2022-09-02T11:51:03.934Z,3.13
2022-09-02T11:53:39.663Z,3.20
2022-09-02T11:56:24.635Z,3.10
2022-09-02T11:58:56.915Z,2.70
2022-09-02T12:01:55.216Z,3.47
2022-09-02T12:07:19.700Z,3.53
2022-09-02T12:09:55.026Z,3.97
2022-09-02T12:12:38.937Z,4.13
2022-09-02T12:15:16.965Z,5.00
2022-09-02T12:17:51.858Z,3.90
2022-09-02T12:20:38.932Z,4.37
2022-09-02T12:23:48.639Z,4.17
2022-09-02T12:26:45.018Z,4.27
2022-09-02T12:29:19.710Z,3.80
2022-09-02T12:31:53.434Z,4.07
2022-09-02T12:34:25.172Z,4.13
2022-09-02T12:37:02.482Z,4.17
2022-09-02T12:39:35.569Z,3.37
2022-09-02T12:42:07.281Z,3.87
2022-09-02T12:45:06.947Z,4.30
2022-09-02T12:47:41.819Z,4.27
2022-09-02T12:50:27.634Z,4.37
2022-09-02T12:53:17.957Z,4.00
2022-09-02T12:56:15.230Z,4.30
2022-09-02T12:59:00.149Z,4.10
2022-09-02T13:02:01.674Z,5.20
2022-09-02T13:04:51.726Z,4.77
2022-09-02T13:07:35.412Z,4.80
2022-09-02T13:10:25.863Z,4.83
2022-09-02T13:13:19.366Z,7.00
2022-09-02T13:16:18.430Z,5.13
2022-09-02T13:18:59.524Z,6.17
2022-09-02T13:21:49.850Z,9.57
2022-09-02T13:24:49.086Z,9.37
2022-09-02T13:27:58.402Z,3.90
2022-09-02T13:30:39.129Z,3.90
2022-09-02T13:33:12.314Z,4.67
2022-09-02T13:35:44.529Z,4.10
2022-09-02T13:38:24.656Z,5.00
2022-09-02T13:40:56.591Z,4.67
2022-09-02T13:43:28.703Z,5.40
2022-09-02T13:46:02.553Z,6.10
2022-09-02T13:48:39.379Z,6.27
2022-09-02T13:51:14.914Z,7.77
2022-09-02T13:54:18.762Z,6.03
2022-09-02T13:56:41.087Z,3.88
2022-09-02T13:59:12.831Z,23.50
2022-09-02T14:01:44.963Z,22.77
2022-09-02T14:04:17.432Z,16.60
2022-09-02T14:06:49.512Z,9.53
2022-09-02T14:09:31.467Z,5.90
2022-09-02T14:12:06.611Z,4.33
2022-09-02T14:14:40.486Z,4.20
2022-09-02T14:17:23.558Z,3.90
2022-09-02T14:20:18.159Z,3.70
2022-09-02T14:22:57.977Z,3.83
2022-09-02T14:25:37.326Z,4.70
2022-09-02T14:28:19.951Z,4.10
2022-09-02T14:31:03.613Z,5.10
2022-09-02T14:33:45.234Z,7.10
2022-09-02T14:36:23.595Z,5.60
2022-09-02T14:39:16.783Z,4.43
2022-09-02T14:41:51.309Z,3.90
2022-09-02T14:44:33.248Z,3.60
2022-09-02T14:47:07.202Z,4.27
2022-09-02T14:49:55.455Z,4.47
2022-09-02T14:52:30.291Z,3.40
2022-09-02T14:55:03.023Z,4.00
2022-09-02T14:57:38.112Z,3.77
2022-09-02T15:00:13.812Z,3.63
2022-09-02T15:02:47.558Z,4.10
2022-09-02T15:05:19.398Z,3.27
2022-09-02T15:07:51.209Z,4.10
2022-09-02T15:10:23.303Z,3.70
2022-09-02T15:12:57.519Z,3.57
2022-09-02T15:15:29.337Z,3.80
2022-09-02T15:18:02.419Z,3.63
2022-09-02T15:20:34.209Z,4.10
2022-09-02T15:23:05.979Z,4.20
2022-09-02T15:25:37.696Z,3.50
2022-09-02T15:28:10.989Z,3.77
2022-09-02T15:30:42.762Z,3.57
2022-09-02T15:33:17.399Z,3.53
2022-09-02T15:35:49.937Z,3.80
2022-09-02T15:38:21.699Z,3.67
2022-09-02T15:40:53.422Z,3.50
2022-09-02T15:43:25.131Z,3.70
2022-09-02T15:45:56.883Z,3.70
2022-09-02T15:48:32.015Z,4.10
2022-09-02T15:51:11.774Z,3.60
2022-09-02T15:53:44.600Z,4.10
2022-09-02T15:56:21.618Z,3.57
2022-09-02T15:59:09.889Z,3.80
2022-09-02T16:01:47.117Z,3.17
2022-09-02T16:04:18.963Z,3.60
2022-09-02T16:06:54.690Z,3.63
2022-09-02T16:09:26.456Z,3.27
2022-09-02T16:11:58.152Z,3.80
2022-09-02T16:14:29.930Z,3.70
2022-09-02T16:17:01.714Z,3.50
2022-09-02T16:19:33.523Z,3.23
2022-09-02T16:22:05.568Z,3.37
2022-09-02T16:24:37.299Z,2.93
2022-09-02T16:27:09.924Z,3.10
2022-09-02T16:29:42.288Z,3.60
2022-09-02T16:32:27.696Z,3.63
2022-09-02T16:34:59.804Z,3.60
2022-09-02T16:37:31.564Z,3.30
2022-09-02T16:40:04.112Z,3.40
2022-09-02T16:42:38.145Z,3.53
2022-09-02T16:45:10.316Z,3.10
2022-09-02T16:47:42.050Z,3.27
2022-09-02T16:50:13.869Z,3.20
2022-09-02T16:52:45.586Z,2.70
2022-09-02T16:55:18.741Z,3.07
2022-09-02T16:57:50.468Z,3.43
2022-09-02T17:00:23.850Z,3.20
2022-09-02T17:02:55.596Z,3.77
2022-09-02T17:05:27.427Z,3.20
2022-09-02T17:08:01.417Z,3.20
2022-09-02T17:10:35.009Z,3.23
2022-09-02T17:13:06.954Z,3.10
2022-09-02T17:15:38.731Z,3.90
2022-09-02T17:18:10.458Z,3.00
2022-09-02T17:20:42.218Z,2.93
2022-09-02T17:23:14.842Z,3.47
2022-09-02T17:25:46.756Z,3.30
2022-09-02T17:28:18.490Z,3.60
2022-09-02T17:30:50.288Z,3.50
2022-09-02T17:33:22.064Z,3.73
2022-09-02T17:35:58.051Z,3.07
2022-09-02T17:38:29.772Z,3.60
2022-09-02T17:41:20.110Z,2.90
2022-09-02T17:43:52.281Z,3.50
2022-09-02T17:46:24.237Z,3.43
2022-09-02T17:49:15.700Z,3.10
2022-09-02T17:51:48.801Z,3.30
2022-09-02T17:54:20.493Z,3.20
2022-09-02T17:57:09.815Z,3.60
2022-09-02T17:59:47.286Z,4.30
2022-09-02T18:02:43.462Z,3.43
2022-09-02T18:05:32.915Z,4.47
2022-09-02T18:08:29.067Z,4.30
2022-09-02T18:11:04.452Z,4.37
2022-09-02T18:13:55.014Z,4.23
2022-09-02T18:16:51.798Z,3.77
2022-09-02T18:19:35.950Z,3.50
2022-09-02T18:22:37.482Z,4.80
2022-09-02T18:25:39.930Z,4.20
2022-09-02T18:28:26.342Z,3.80
2022-09-02T18:31:21.136Z,4.00
2022-09-02T18:34:27.111Z,4.00
2022-09-02T18:37:38.805Z,3.70
2022-09-02T18:40:29.206Z,3.20
2022-09-02T18:43:16.218Z,4.13
2022-09-02T18:45:49.289Z,4.60
2022-09-02T18:48:27.983Z,3.80
2022-09-02T18:51:38.227Z,4.20
2022-09-02T18:54:22.892Z,4.53
2022-09-02T18:57:01.295Z,4.67
2022-09-02T18:59:45.862Z,6.43
2022-09-02T19:02:36.296Z,5.90
2022-09-02T19:05:12.332Z,4.13
2022-09-02T19:08:04.507Z,4.77
2022-09-02T19:10:36.298Z,4.43
2022-09-02T19:13:08.331Z,4.43
2022-09-02T19:15:40.351Z,4.60
2022-09-02T19:18:13.531Z,4.33
2022-09-02T19:20:45.347Z,5.00
2022-09-02T19:23:17.078Z,4.27
2022-09-02T19:25:48.883Z,4.70
2022-09-02T19:28:22.055Z,5.30
2022-09-02T19:31:00.912Z,8.03
2022-09-02T19:33:36.235Z,4.93
2022-09-02T19:36:08.355Z,5.00
2022-09-02T19:38:41.055Z,5.03
2022-09-02T19:41:12.849Z,5.47
2022-09-02T19:43:44.586Z,5.60
2022-09-02T19:46:44.308Z,4.70
2022-09-02T19:49:12.170Z,9.03
2022-09-02T19:51:44.684Z,6.90
2022-09-02T19:54:18.383Z,4.70
2022-09-02T19:56:50.171Z,4.77
2022-09-02T19:59:22.383Z,6.17
2022-09-02T20:01:54.259Z,5.40
2022-09-02T20:04:29.870Z,5.37
2022-09-02T20:07:02.113Z,4.70
2022-09-02T20:09:33.862Z,4.47
2022-09-02T20:12:05.590Z,5.17
2022-09-02T20:14:37.310Z,4.50
2022-09-02T20:17:14.683Z,4.70
2022-09-02T20:19:47.027Z,4.50
2022-09-02T20:22:18.818Z,4.50
2022-09-02T20:24:50.541Z,4.90
2022-09-02T20:27:40.002Z,4.30
2022-09-02T20:30:17.438Z,4.00
2022-09-02T20:33:22.353Z,3.93
2022-09-02T20:36:12.262Z,4.30
2022-09-02T20:39:11.883Z,4.30
2022-09-02T20:42:06.820Z,4.20
2022-09-02T20:45:02.231Z,4.33
2022-09-02T20:48:01.061Z,4.43
2022-09-02T20:50:37.784Z,4.47
2022-09-02T20:53:27.596Z,4.10
2022-09-02T20:56:23.866Z,6.00
2022-09-02T20:59:00.248Z,4.90
2022-09-02T21:01:36.099Z,5.27
2022-09-02T21:04:29.965Z,5.13
2022-09-02T21:07:26.751Z,4.60
2022-09-02T21:10:09.247Z,4.80
2022-09-02T21:13:06.083Z,4.87
2022-09-02T21:15:49.434Z,5.17
2022-09-02T21:18:42.910Z,4.60
2022-09-02T21:21:36.582Z,4.60
2022-09-02T21:24:18.950Z,4.80
2022-09-02T21:27:03.818Z,5.57
2022-09-02T21:29:40.626Z,4.90
2022-09-02T21:32:36.610Z,5.60
2022-09-02T21:35:29.079Z,4.70
2022-09-02T21:38:13.661Z,5.27
2022-09-02T21:40:57.154Z,5.03
2022-09-02T21:43:34.959Z,4.90
2022-09-02T21:46:32.993Z,4.40
2022-09-02T21:49:35.050Z,4.80
2022-09-02T21:52:06.878Z,4.93
2022-09-02T21:55:03.311Z,4.60
2022-09-02T21:58:26.769Z,5.57
2022-09-02T22:01:07.786Z,5.10
2022-09-02T22:04:04.776Z,5.70
2022-09-02T22:06:47.838Z,5.10
2022-09-02T22:09:30.938Z,5.53
2022-09-02T22:12:09.194Z,5.07
2022-09-02T22:15:03.275Z,5.20
2022-09-02T22:17:38.895Z,6.23
2022-09-02T22:20:15.693Z,6.00
2022-09-02T22:23:03.226Z,5.37
2022-09-02T22:25:36.027Z,5.80
2022-09-02T22:28:20.326Z,5.80
2022-09-02T22:31:02.493Z,5.47
2022-09-02T22:33:42.678Z,4.63
2022-09-02T22:36:28.906Z,5.43
2022-09-02T22:39:02.050Z,5.80
2022-09-02T22:41:33.727Z,5.40
2022-09-02T22:44:11.219Z,5.00
2022-09-02T22:47:23.387Z,5.40
2022-09-02T22:50:18.488Z,5.33
2022-09-02T22:52:54.864Z,5.70
2022-09-02T22:55:42.526Z,4.87
2022-09-02T22:58:41.170Z,5.40
2022-09-02T23:01:37.699Z,5.30
2022-09-02T23:04:50.102Z,5.20
2022-09-02T23:07:24.070Z,4.80
2022-09-02T23:09:59.242Z,4.87
2022-09-02T23:12:41.515Z,6.00
2022-09-02T23:15:37.188Z,5.67
2022-09-02T23:18:31.339Z,5.17
2022-09-02T23:21:28.115Z,4.33
2022-09-02T23:24:03.138Z,4.80
2022-09-02T23:27:03.437Z,4.60
2022-09-02T23:29:35.774Z,5.20
2022-09-02T23:32:29.110Z,4.40
2022-09-02T23:35:37.003Z,5.27
2022-09-02T23:38:32.702Z,4.97
2022-09-02T23:41:10.242Z,5.00
2022-09-02T23:43:43.976Z,4.55
2022-09-02T23:46:26.094Z,4.37
2022-09-02T23:49:30.295Z,4.80
2022-09-02T23:52:21.247Z,5.40
2022-09-02T23:55:12.372Z,5.03
2022-09-02T23:58:05.081Z,4.67
